createdAt,value
2023-02-09T00:04:07.726Z,145.9119
2023-02-09T00:09:09.460Z,137.4482
2023-02-09T00:14:11.135Z,131.03045
2023-02-09T00:19:12.983Z,119.3568
2023-02-09T00:24:14.548Z,105.7835
2023-02-09T00:29:16.354Z,98.5728
2023-02-09T00:34:18.013Z,77.6595
2023-02-09T00:39:19.630Z,64.4551
2023-02-09T00:44:21.381Z,49.11145
2023-02-09T00:49:23.087Z,30.0978
2023-02-09T00:54:24.750Z,26.2985
2023-02-09T00:59:26.383Z,15.6574
2023-02-09T01:04:28.168Z,7.52445
2023-02-09T01:09:30.047Z,4.83185
2023-02-09T01:14:31.694Z,2.3237
2023-02-09T01:19:33.311Z,1.16185
2023-02-09T01:24:35.010Z,0
2023-02-09T01:29:36.615Z,0
2023-02-09T01:34:38.192Z,0
2023-02-09T01:39:39.796Z,0
2023-02-09T01:44:41.556Z,0
2023-02-09T01:49:43.175Z,0
2023-02-09T01:54:45.103Z,0
2023-02-09T01:59:46.751Z,0
2023-02-09T02:04:48.370Z,0
2023-02-09T02:09:49.989Z,0
2023-02-09T02:14:51.766Z,0
2023-02-09T02:19:53.410Z,0
2023-02-09T02:24:55.044Z,0
2023-02-09T02:29:56.640Z,0
2023-02-09T02:34:58.244Z,0
2023-02-09T02:39:59.896Z,0
2023-02-09T02:45:02.573Z,0
2023-02-09T02:50:04.193Z,0
2023-02-09T02:55:05.781Z,0
2023-02-09T03:00:07.627Z,0
2023-02-09T03:05:09.479Z,0
2023-02-09T03:10:11.150Z,0
2023-02-09T03:15:12.759Z,0
2023-02-09T03:20:14.376Z,0
2023-02-09T03:25:16.680Z,0
2023-02-09T03:30:18.260Z,0
2023-02-09T03:35:19.911Z,0
2023-02-09T03:40:21.684Z,0
2023-02-09T03:45:23.411Z,0
2023-02-09T03:50:25.069Z,0
2023-02-09T03:55:27.029Z,0
2023-02-09T04:00:28.803Z,0
2023-02-09T04:05:30.469Z,0
2023-02-09T04:10:32.134Z,0
2023-02-09T04:15:33.767Z,0
2023-02-09T04:20:35.527Z,0
2023-02-09T04:25:37.134Z,0
2023-02-09T04:30:38.771Z,0
2023-02-09T04:35:40.406Z,0
2023-02-09T04:40:41.963Z,0
2023-02-09T04:45:43.697Z,0
2023-02-09T04:50:45.701Z,0
2023-02-09T04:55:47.621Z,0
2023-02-09T05:00:49.369Z,0
2023-02-09T05:05:51.002Z,0
2023-02-09T05:10:52.587Z,0
2023-02-09T05:15:54.314Z,0
2023-02-09T05:20:55.911Z,0
2023-02-09T05:25:57.697Z,0
2023-02-09T05:30:59.540Z,0
2023-02-09T05:36:01.796Z,0
2023-02-09T05:41:03.598Z,0
2023-02-09T05:46:07.827Z,0
2023-02-09T05:51:10.040Z,0
2023-02-09T05:56:11.656Z,0
2023-02-09T06:01:13.259Z,0
2023-02-09T06:06:15.015Z,0
2023-02-09T06:11:16.618Z,0
2023-02-09T06:16:18.265Z,0
2023-02-09T06:21:19.865Z,0
2023-02-09T06:26:21.468Z,0
2023-02-09T06:31:23.307Z,0
2023-02-09T06:36:24.961Z,0
2023-02-09T06:41:26.597Z,0
2023-02-09T06:46:28.310Z,0
2023-02-09T06:51:30.014Z,0
2023-02-09T06:56:31.837Z,0
2023-02-09T07:01:33.510Z,0
2023-02-09T07:06:35.249Z,0
2023-02-09T07:11:36.821Z,0
2023-02-09T07:16:38.454Z,0
2023-02-09T07:21:40.081Z,0
2023-02-09T07:26:41.724Z,0
2023-02-09T07:31:43.523Z,0
2023-02-09T07:36:47.634Z,0
2023-02-09T07:41:49.563Z,0
2023-02-09T07:46:51.242Z,0
2023-02-09T07:51:52.895Z,0
2023-02-09T07:56:54.518Z,0
2023-02-09T08:01:56.242Z,0
2023-02-09T08:06:57.862Z,0
2023-02-09T08:11:59.506Z,0
2023-02-09T08:17:01.646Z,0
2023-02-09T08:22:03.267Z,0
2023-02-09T08:27:04.889Z,0
2023-02-09T08:32:06.581Z,0
2023-02-09T08:37:08.279Z,0
2023-02-09T08:42:10.091Z,0
2023-02-09T08:47:11.857Z,0
2023-02-09T08:52:13.598Z,0
2023-02-09T08:57:15.297Z,0
2023-02-09T09:02:16.906Z,0
2023-02-09T09:07:18.647Z,0
2023-02-09T09:12:20.328Z,0
2023-02-09T09:17:22.180Z,0
2023-02-09T09:22:23.767Z,0
2023-02-09T09:27:26.994Z,0
2023-02-09T09:32:28.940Z,0
2023-02-09T09:37:30.617Z,0
2023-02-09T09:42:32.206Z,0
2023-02-09T09:47:33.827Z,0
2023-02-09T09:52:35.541Z,0
2023-02-09T09:57:37.161Z,0
2023-02-09T10:02:38.882Z,0
2023-02-09T10:07:40.501Z,0
2023-02-09T10:12:42.116Z,0
2023-02-09T10:17:44.025Z,0
2023-02-09T10:22:45.611Z,0
2023-02-09T10:27:47.247Z,0
2023-02-09T10:32:48.969Z,0
2023-02-09T10:37:50.636Z,0
2023-02-09T10:42:52.295Z,0
2023-02-09T10:47:53.896Z,0
2023-02-09T10:52:55.525Z,0
2023-02-09T10:57:57.138Z,0
2023-02-09T11:02:58.896Z,0
2023-02-09T11:08:00.714Z,0
2023-02-09T11:13:02.531Z,0
2023-02-09T11:18:04.259Z,0
2023-02-09T11:23:05.978Z,0
2023-02-09T11:28:07.733Z,0
2023-02-09T11:33:09.368Z,0
2023-02-09T11:38:11.059Z,0
2023-02-09T11:43:12.704Z,0
2023-02-09T11:48:14.362Z,0
2023-02-09T11:53:15.983Z,0
2023-02-09T11:58:17.706Z,0
2023-02-09T12:03:19.321Z,0
2023-02-09T12:08:21.028Z,0
2023-02-09T12:13:22.690Z,0
2023-02-09T12:18:24.273Z,0
2023-02-09T12:23:25.938Z,0
2023-02-09T12:28:27.654Z,0
2023-02-09T12:33:29.256Z,0
2023-02-09T12:38:30.883Z,0
2023-02-09T12:43:32.514Z,0
2023-02-09T12:48:34.146Z,0
2023-02-09T12:53:35.771Z,0
2023-02-09T12:58:37.399Z,0
2023-02-09T13:03:39.129Z,0
2023-02-09T13:08:40.767Z,0
2023-02-09T13:13:42.439Z,0
2023-02-09T13:18:44.079Z,0
2023-02-09T13:23:45.715Z,0
2023-02-09T13:28:47.340Z,0
2023-02-09T13:33:48.982Z,0
2023-02-09T13:38:50.630Z,0
2023-02-09T13:43:52.345Z,0
2023-02-09T13:48:54.075Z,0
2023-02-09T13:53:55.756Z,0
2023-02-09T13:58:57.523Z,0
2023-02-09T14:03:59.161Z,0
2023-02-09T14:09:00.822Z,0
2023-02-09T14:14:02.541Z,0
2023-02-09T14:19:04.121Z,0
2023-02-09T14:24:06.706Z,0
2023-02-09T14:29:09.606Z,0
2023-02-09T14:34:12.538Z,0
2023-02-09T14:39:14.238Z,0
2023-02-09T14:44:15.850Z,0.88715
2023-02-09T14:49:17.479Z,1.16185
2023-02-09T14:54:19.075Z,1.2444
2023-02-09T14:59:20.730Z,3.49615
2023-02-09T15:04:22.366Z,4.7767
2023-02-09T15:09:23.971Z,13.3337
2023-02-09T15:14:25.773Z,22.8681
2023-02-09T15:19:27.658Z,23.9748
2023-02-09T15:24:29.327Z,35.7226
2023-02-09T15:29:31.038Z,49.73895
2023-02-09T15:34:32.878Z,65.15675
2023-02-09T15:39:34.496Z,83.87565
2023-02-09T15:44:36.161Z,107.3161
2023-02-09T15:49:37.805Z,129.705
2023-02-09T15:54:39.436Z,152.03875
2023-02-09T15:59:41.064Z,171.7902
2023-02-09T16:04:42.687Z,194.97205
2023-02-09T16:09:44.375Z,209.3383
2023-02-09T16:14:46.249Z,231.41345
2023-02-09T16:19:47.864Z,282.68315
2023-02-09T16:24:49.481Z,333.58395
2023-02-09T16:29:51.143Z,360.1962
2023-02-09T16:34:52.797Z,386.32925
2023-02-09T16:39:54.478Z,420.33665
2023-02-09T16:44:56.144Z,451.54115
2023-02-09T16:49:57.769Z,489.60645
2023-02-09T16:54:59.457Z,438.42805
2023-02-09T17:00:01.239Z,423.85835
2023-02-09T17:05:02.885Z,436.95245
2023-02-09T17:10:04.516Z,462.5873
2023-02-09T17:15:06.214Z,505.4103
2023-02-09T17:20:07.863Z,532.52075
2023-02-09T17:25:09.638Z,530.19705
2023-02-09T17:30:11.255Z,488.22215
2023-02-09T17:35:12.905Z,441.0465
2023-02-09T17:40:14.581Z,399.01645
2023-02-09T17:45:16.277Z,390.7542
2023-02-09T17:50:17.914Z,430.93975
2023-02-09T17:55:19.569Z,451.429
2023-02-09T18:00:21.226Z,467.1054
2023-02-09T18:05:22.854Z,443.7391
2023-02-09T18:10:24.548Z,391.06795
2023-02-09T18:15:26.195Z,406.7805
2023-02-09T18:20:27.851Z,402.55715
2023-02-09T18:25:29.527Z,408.18195
2023-02-09T18:30:31.363Z,387.37895
2023-02-09T18:35:32.985Z,417.5319
2023-02-09T18:40:34.700Z,420.4641
2023-02-09T18:45:36.374Z,393.37265
2023-02-09T18:50:37.999Z,409.39895
2023-02-09T18:55:39.696Z,430.2571
2023-02-09T19:00:41.516Z,479.0738
2023-02-09T19:05:43.149Z,517.3597
2023-02-09T19:10:44.731Z,524.4601
2023-02-09T19:15:46.883Z,588.38085
2023-02-09T19:20:48.688Z,584.34195
2023-02-09T19:25:50.327Z,636.45975
2023-02-09T19:30:51.987Z,519.942
2023-02-09T19:35:53.661Z,568.44495
2023-02-09T19:41:09.558Z,619.1613
2023-02-09T19:46:12.485Z,672.69955
2023-02-09T19:51:14.144Z,801.5926
2023-02-09T19:56:16.049Z,843.5675
2023-02-09T20:01:17.683Z,791.35655
2023-02-09T20:06:19.357Z,855.2963
2023-02-09T20:11:21.064Z,860.9211
2023-02-09T20:16:22.807Z,749.87985
2023-02-09T20:21:24.490Z,590.5201
2023-02-09T20:26:26.117Z,495.9482
2023-02-09T20:31:27.719Z,525.6771
2023-02-09T20:36:29.386Z,490.00965
2023-02-09T20:41:31.039Z,444.62335
2023-02-09T20:46:32.745Z,433.1893
2023-02-09T20:51:34.347Z,479.36855
2023-02-09T20:56:35.990Z,545.0045
2023-02-09T21:01:37.556Z,520.9004
2023-02-09T21:06:39.292Z,398.4441
2023-02-09T21:11:40.966Z,364.12295
2023-02-09T21:16:42.648Z,345.40405
2023-02-09T21:21:44.330Z,352.32
2023-02-09T21:26:45.920Z,341.86335
2023-02-09T21:31:48.206Z,377.58595
2023-02-09T21:36:49.905Z,350.18075
2023-02-09T21:41:51.500Z,247.8448
2023-02-09T21:46:53.117Z,272.1885
2023-02-09T21:51:54.748Z,297.69405
2023-02-09T21:56:56.400Z,319.29
2023-02-09T22:01:58.032Z,306.50965
2023-02-09T22:06:59.676Z,298.9852
2023-02-09T22:12:01.418Z,292.19855
2023-02-09T22:17:03.017Z,289.02675
2023-02-09T22:22:04.646Z,351.41675
2023-02-09T22:27:06.347Z,395.34645
2023-02-09T22:32:08.001Z,369.7116
2023-02-09T22:37:09.629Z,363.2197
2023-02-09T22:42:11.397Z,329.9501
2023-02-09T22:47:13.063Z,279.4182
2023-02-09T22:52:14.844Z,259.40815
2023-02-09T22:57:16.483Z,214.8148
2023-02-09T23:02:18.185Z,211.93775
2023-02-09T23:07:19.843Z,224.66295
2023-02-09T23:12:21.528Z,190.2315
2023-02-09T23:17:23.220Z,128.45
2023-02-09T23:22:24.862Z,119.57925
2023-02-09T23:27:26.503Z,96.21295
2023-02-09T23:32:28.122Z,91.3811
2023-02-09T23:37:37.543Z,106.3197
2023-02-09T23:42:40.164Z,151.0975
2023-02-09T23:47:41.787Z,178.07865
2023-02-09T23:52:43.464Z,124.6697
2023-02-09T23:57:45.164Z,102.33595
